Time;durP1;ratioP1;P1;durP2;ratioP2;P2;SDS_P1;SDS_P2;PMS_P1;PMS_P2;Temp;Humidity;BMP_temperature;BMP_pressure;BME280_temperature;BME280_humidity;BME280_pressure;Samples;Min_cycle;Max_cycle;Signal;HPM_P1;HPM_P2
2022/09/15 00:01:47;;;;;;;;;;;11.90;99.90;;;;;;5125127;27;19934;-66
2022/09/15 00:04:13;;;;;;;;;;;11.90;99.90;;;;;;5124520;27;19911;-66
2022/09/15 00:06:38;;;;;;;;;;;11.90;99.90;;;;;;5124897;27;19919;-66
2022/09/15 00:09:04;;;;;;;;;;;12.00;99.90;;;;;;5124966;27;19911;-66
2022/09/15 00:11:31;;;;;;;;;;;12.00;99.90;;;;;;5124807;27;19919;-66
2022/09/15 00:13:58;;;;;;;;;;;12.00;99.90;;;;;;5122746;27;19917;-66
2022/09/15 00:16:25;;;;;;;;;;;12.00;99.90;;;;;;5122609;27;19926;-65
2022/09/15 00:18:50;;;;;;;;;;;12.00;99.90;;;;;;5122790;27;19953;-65
2022/09/15 00:21:18;;;;;;;;;;;11.90;99.90;;;;;;5123089;27;20530;-66
2022/09/15 00:23:44;;;;;;;;;;;11.90;99.90;;;;;;5124956;27;19915;-66
2022/09/15 00:26:11;;;;;;;;;;;11.90;99.90;;;;;;5131805;27;19916;-66
2022/09/15 00:28:37;;;;;;;;;;;11.80;99.90;;;;;;5124103;27;19923;-66
2022/09/15 00:31:08;;;;;;;;;;;11.70;99.90;;;;;;5124126;27;19923;-66
2022/09/15 00:33:33;;;;;;;;;;;11.70;99.90;;;;;;5124040;27;19919;-66
2022/09/15 00:36:03;;;;;;;;;;;11.60;99.90;;;;;;5124254;27;19919;-66
2022/09/15 00:38:29;;;;;;;;;;;11.60;99.90;;;;;;5124508;27;19919;-65
2022/09/15 00:40:55;;;;;;;;;;;11.60;99.90;;;;;;5123175;27;20258;-66
2022/09/15 00:43:41;;;;;;;;;;;11.50;99.90;;;;;;5126784;27;19950;-66
2022/09/15 00:46:06;;;;;;;;;;;11.50;99.90;;;;;;5123425;27;19922;-66
2022/09/15 00:48:32;;;;;;;;;;;11.40;99.90;;;;;;5123051;27;20326;-66
2022/09/15 00:50:59;;;;;;;;;;;11.40;99.90;;;;;;5123664;27;19918;-66
2022/09/15 00:53:25;;;;;;;;;;;11.30;99.90;;;;;;5121520;27;19922;-66
2022/09/15 00:55:51;;;;;;;;;;;11.20;99.90;;;;;;5120865;27;19916;-66
2022/09/15 00:58:23;;;;;;;;;;;11.20;99.90;;;;;;5122358;27;19920;-65
2022/09/15 01:00:55;;;;;;;;;;;11.10;99.90;;;;;;5123638;27;19915;-66
2022/09/15 01:03:21;;;;;;;;;;;11.10;99.90;;;;;;5122220;27;20194;-66
2022/09/15 01:05:50;;;;;;;;;;;11.10;99.90;;;;;;5123754;27;20022;-66
2022/09/15 01:08:45;;;;;;;;;;;11.20;99.90;;;;;;5123250;27;19923;-66
2022/09/15 01:11:10;;;;;;;;;;;11.20;99.90;;;;;;5096200;27;19976;-66
2022/09/15 01:13:36;;;;;;;;;;;11.10;99.90;;;;;;5122952;27;20045;-66
2022/09/15 01:16:01;;;;;;;;;;;11.20;99.90;;;;;;5123351;27;19919;-66
2022/09/15 01:18:42;;;;;;;;;;;11.10;99.90;;;;;;5123211;27;19930;-65
2022/09/15 01:21:27;;;;;;;;;;;11.10;99.90;;;;;;5122062;27;19916;-66
2022/09/15 01:24:13;;;;;;;;;;;11.10;99.90;;;;;;5111898;27;19922;-66
2022/09/15 01:26:46;;;;;;;;;;;11.10;99.90;;;;;;5109465;27;20375;-66
2022/09/15 01:29:30;;;;;;;;;;;11.10;99.90;;;;;;5118263;27;20065;-66
2022/09/15 01:35:01;;;;;;;;;;;11.10;99.90;;;;;;5129203;27;19976;-66
2022/09/15 01:37:30;;;;;;;;;;;11.20;99.90;;;;;;5120915;27;19915;-66
2022/09/15 01:39:57;;;;;;;;;;;11.10;99.90;;;;;;5103149;28;19946;-66
2022/09/15 01:42:23;;;;;;;;;;;11.10;99.90;;;;;;5107455;27;20332;-66
2022/09/15 01:44:59;;;;;;;;;;;11.10;99.90;;;;;;5122101;27;19959;-66
2022/09/15 01:47:26;;;;;;;;;;;11.10;99.90;;;;;;5121808;27;19920;-66
2022/09/15 01:49:54;;;;;;;;;;;11.10;99.90;;;;;;5108723;27;19915;-65
2022/09/15 01:52:21;;;;;;;;;;;11.10;99.90;;;;;;5117125;27;20002;-66
2022/09/15 01:54:48;;;;;;;;;;;11.10;99.90;;;;;;5117933;27;20001;-65
2022/09/15 01:57:16;;;;;;;;;;;11.00;99.90;;;;;;5114727;27;20343;-65
2022/09/15 01:59:43;;;;;;;;;;;11.00;99.90;;;;;;5116138;27;19915;-65
2022/09/15 02:02:11;;;;;;;;;;;10.90;99.90;;;;;;5111742;27;20339;-65
2022/09/15 02:04:39;;;;;;;;;;;10.90;99.90;;;;;;5115594;27;20350;-65
2022/09/15 02:07:10;;;;;;;;;;;10.90;99.90;;;;;;5117246;27;20188;-66
2022/09/15 02:09:38;;;;;;;;;;;10.90;99.90;;;;;;5118396;27;20384;-65
2022/09/15 02:12:18;;;;;;;;;;;10.90;99.90;;;;;;5118317;27;19915;-65
2022/09/15 02:14:46;;;;;;;;;;;10.90;99.90;;;;;;5099870;28;20290;-68
2022/09/15 02:17:14;;;;;;;;;;;10.90;99.90;;;;;;5106880;27;19915;-65
2022/09/15 02:19:42;;;;;;;;;;;10.90;99.90;;;;;;5118585;27;20338;-65
2022/09/15 02:22:22;;;;;;;;;;;10.90;99.90;;;;;;5120763;27;20355;-65
2022/09/15 02:24:55;;;;;;;;;;;10.90;99.90;;;;;;5121159;27;20287;-65
2022/09/15 02:27:23;;;;;;;;;;;10.90;99.90;;;;;;5108511;27;20386;-66
2022/09/15 02:29:51;;;;;;;;;;;10.90;99.90;;;;;;5120358;27;20429;-65
2022/09/15 02:32:18;;;;;;;;;;;10.90;99.90;;;;;;5118740;27;19918;-65
2022/09/15 02:34:45;;;;;;;;;;;10.80;99.90;;;;;;5120313;27;19918;-66
2022/09/15 02:37:11;;;;;;;;;;;10.90;99.90;;;;;;5118830;27;20032;-66
2022/09/15 02:39:39;;;;;;;;;;;10.90;99.90;;;;;;5119289;28;20325;-65
2022/09/15 02:42:05;;;;;;;;;;;10.90;99.90;;;;;;5121817;27;19919;-66
2022/09/15 02:44:31;;;;;;;;;;;10.90;99.90;;;;;;5119939;28;19916;-65
2022/09/15 02:46:57;;;;;;;;;;;11.00;99.90;;;;;;5121146;28;20018;-66
2022/09/15 02:49:23;;;;;;;;;;;11.00;99.90;;;;;;5120170;28;19915;-65
2022/09/15 02:51:48;;;;;;;;;;;11.00;99.90;;;;;;5121217;28;20259;-66
2022/09/15 02:54:14;;;;;;;;;;;11.10;99.90;;;;;;5118212;28;19919;-65
2022/09/15 02:56:39;;;;;;;;;;;11.10;99.90;;;;;;5117178;28;20021;-66
2022/09/15 02:59:05;;;;;;;;;;;11.10;99.90;;;;;;5119346;27;20748;-65
2022/09/15 03:01:31;;;;;;;;;;;11.10;99.90;;;;;;5117081;27;20015;-65
2022/09/15 03:03:56;;;;;;;;;;;11.20;99.90;;;;;;5104797;28;19922;-65
2022/09/15 03:06:22;;;;;;;;;;;11.10;99.90;;;;;;5108147;27;20030;-66
2022/09/15 03:08:48;;;;;;;;;;;11.20;99.90;;;;;;5120695;27;19919;-65
2022/09/15 03:11:14;;;;;;;;;;;11.20;99.90;;;;;;5122522;27;19976;-65
2022/09/15 03:13:40;;;;;;;;;;;11.20;99.90;;;;;;5115777;27;19920;-65
2022/09/15 03:16:07;;;;;;;;;;;11.20;99.90;;;;;;5128724;27;19915;-65
2022/09/15 03:18:33;;;;;;;;;;;11.20;99.90;;;;;;5121900;27;19915;-65
2022/09/15 03:20:58;;;;;;;;;;;11.20;99.90;;;;;;5123285;27;19919;-66
2022/09/15 03:23:24;;;;;;;;;;;11.30;99.90;;;;;;5123626;27;19942;-65
2022/09/15 03:25:50;;;;;;;;;;;11.30;99.90;;;;;;5119070;27;20010;-66
2022/09/15 03:28:15;;;;;;;;;;;11.30;99.90;;;;;;5117471;27;19923;-65
2022/09/15 03:30:41;;;;;;;;;;;11.40;99.90;;;;;;5123691;27;19915;-65
2022/09/15 03:33:06;;;;;;;;;;;11.40;99.90;;;;;;5137280;27;20017;-65
2022/09/15 03:35:32;;;;;;;;;;;11.40;99.90;;;;;;5138460;27;20210;-65
2022/09/15 03:37:57;;;;;;;;;;;11.40;99.90;;;;;;5117679;27;19916;-66
2022/09/15 03:40:23;;;;;;;;;;;11.50;99.90;;;;;;5119167;27;19963;-65
2022/09/15 03:42:48;;;;;;;;;;;11.50;99.90;;;;;;5124347;27;20471;-65
2022/09/15 03:45:14;;;;;;;;;;;11.60;99.90;;;;;;5123929;27;19915;-65
2022/09/15 03:47:39;;;;;;;;;;;11.60;99.90;;;;;;5122739;27;19946;-65
2022/09/15 03:50:05;;;;;;;;;;;11.70;99.90;;;;;;5118179;27;19915;-66
2022/09/15 03:52:31;;;;;;;;;;;11.70;99.90;;;;;;5119572;27;19911;-66
2022/09/15 03:54:57;;;;;;;;;;;11.70;99.90;;;;;;5120572;27;19923;-65
2022/09/15 03:57:22;;;;;;;;;;;11.80;99.90;;;;;;5103501;28;20338;-66
2022/09/15 03:59:48;;;;;;;;;;;11.80;99.90;;;;;;5103733;28;19920;-66
2022/09/15 04:02:14;;;;;;;;;;;11.80;99.90;;;;;;5115934;27;19915;-65
2022/09/15 04:04:40;;;;;;;;;;;11.80;99.90;;;;;;5124443;27;19916;-66
2022/09/15 04:07:07;;;;;;;;;;;11.90;99.90;;;;;;5136737;27;20014;-66
2022/09/15 04:09:33;;;;;;;;;;;12.00;99.90;;;;;;5143958;27;19911;-66
2022/09/15 04:11:58;;;;;;;;;;;12.00;99.90;;;;;;5122657;27;19923;-66
2022/09/15 04:14:24;;;;;;;;;;;12.00;99.90;;;;;;5117921;27;19916;-65
2022/09/15 04:16:50;;;;;;;;;;;12.10;99.90;;;;;;5100836;28;20394;-65
2022/09/15 04:19:15;;;;;;;;;;;12.10;99.90;;;;;;5116345;27;20381;-66
2022/09/15 04:21:41;;;;;;;;;;;12.20;99.90;;;;;;5119368;27;20274;-66
2022/09/15 04:24:06;;;;;;;;;;;12.20;99.90;;;;;;5124837;27;19926;-65
2022/09/15 04:26:33;;;;;;;;;;;12.20;99.90;;;;;;5117294;27;19930;-65
2022/09/15 04:29:00;;;;;;;;;;;12.20;99.90;;;;;;5103272;28;19916;-65
2022/09/15 04:31:25;;;;;;;;;;;12.20;99.90;;;;;;5113219;27;19948;-66
2022/09/15 04:33:52;;;;;;;;;;;12.20;99.90;;;;;;5119396;27;20120;-65
2022/09/15 04:36:19;;;;;;;;;;;12.20;99.90;;;;;;5120933;27;19915;-65
2022/09/15 04:38:46;;;;;;;;;;;12.20;99.90;;;;;;5115725;27;19959;-66
2022/09/15 04:41:11;;;;;;;;;;;12.20;99.90;;;;;;5115688;27;20349;-66
2022/09/15 04:43:37;;;;;;;;;;;12.20;99.90;;;;;;5123156;27;19923;-66
2022/09/15 04:46:03;;;;;;;;;;;12.20;99.90;;;;;;5123765;27;19915;-65
2022/09/15 04:48:29;;;;;;;;;;;12.20;99.90;;;;;;5120991;27;20015;-66
2022/09/15 04:50:59;;;;;;;;;;;12.20;99.90;;;;;;5107451;27;20014;-66
2022/09/15 04:53:25;;;;;;;;;;;12.20;99.90;;;;;;5120676;27;20339;-66
2022/09/15 04:55:50;;;;;;;;;;;12.20;99.90;;;;;;5121794;27;19915;-65
2022/09/15 04:58:15;;;;;;;;;;;12.10;99.90;;;;;;5136569;27;20037;-66
2022/09/15 05:00:44;;;;;;;;;;;12.10;99.90;;;;;;5131951;27;19922;-66
2022/09/15 05:03:10;;;;;;;;;;;12.10;99.90;;;;;;5119050;27;19912;-66
2022/09/15 05:05:36;;;;;;;;;;;12.10;99.90;;;;;;5103138;27;20286;-66
2022/09/15 05:08:02;;;;;;;;;;;12.10;99.90;;;;;;5099065;28;19919;-65
2022/09/15 05:10:27;;;;;;;;;;;12.10;99.90;;;;;;5113855;27;20121;-65
2022/09/15 05:12:53;;;;;;;;;;;12.10;99.90;;;;;;5119315;27;20490;-66
2022/09/15 05:15:18;;;;;;;;;;;12.10;99.90;;;;;;5115759;27;20002;-66
2022/09/15 05:17:44;;;;;;;;;;;12.10;99.90;;;;;;5119596;27;20340;-66
2022/09/15 05:20:10;;;;;;;;;;;12.10;99.90;;;;;;5115523;27;20007;-66
2022/09/15 05:22:35;;;;;;;;;;;12.10;99.90;;;;;;5117936;27;19915;-65
2022/09/15 05:25:01;;;;;;;;;;;12.10;99.90;;;;;;5118326;27;19923;-65
2022/09/15 05:27:29;;;;;;;;;;;12.10;99.90;;;;;;5119983;27;19923;-66
2022/09/15 05:29:54;;;;;;;;;;;12.10;99.90;;;;;;5119928;27;20386;-66
2022/09/15 05:32:20;;;;;;;;;;;12.10;99.90;;;;;;5122127;27;20079;-66
2022/09/15 05:34:45;;;;;;;;;;;12.00;99.90;;;;;;5121587;27;19918;-66
2022/09/15 05:37:11;;;;;;;;;;;12.00;99.90;;;;;;5122324;27;19915;-66
2022/09/15 05:39:38;;;;;;;;;;;12.00;99.90;;;;;;5102622;27;19912;-66
2022/09/15 05:42:03;;;;;;;;;;;12.00;99.90;;;;;;5101080;28;19926;-65
2022/09/15 05:44:30;;;;;;;;;;;12.00;99.90;;;;;;5117884;27;19911;-66
2022/09/15 05:46:55;;;;;;;;;;;12.00;99.90;;;;;;5122630;27;19923;-66
2022/09/15 05:49:21;;;;;;;;;;;12.00;99.90;;;;;;5122602;27;19915;-66
2022/09/15 05:51:46;;;;;;;;;;;12.00;99.90;;;;;;5113392;27;20178;-66
2022/09/15 05:54:12;;;;;;;;;;;12.00;99.90;;;;;;5104633;27;19916;-66
2022/09/15 05:56:37;;;;;;;;;;;12.00;99.90;;;;;;5103824;27;20322;-66
2022/09/15 05:59:03;;;;;;;;;;;12.00;99.90;;;;;;5101470;28;19915;-66
2022/09/15 06:01:29;;;;;;;;;;;12.00;99.90;;;;;;5115039;27;20425;-66
2022/09/15 06:03:55;;;;;;;;;;;12.00;99.90;;;;;;5114671;27;19921;-66
2022/09/15 06:06:21;;;;;;;;;;;12.10;99.90;;;;;;5127241;27;19947;-66
2022/09/15 06:08:49;;;;;;;;;;;12.10;99.90;;;;;;5109749;27;20035;-66
2022/09/15 06:11:16;;;;;;;;;;;12.10;99.90;;;;;;5103954;27;20312;-66
2022/09/15 06:13:42;;;;;;;;;;;12.20;99.90;;;;;;5113429;27;19980;-66
2022/09/15 06:16:09;;;;;;;;;;;12.20;99.90;;;;;;5112920;27;19916;-66
2022/09/15 06:18:36;;;;;;;;;;;12.20;99.90;;;;;;5114333;27;19916;-66
2022/09/15 06:21:05;;;;;;;;;;;12.30;99.90;;;;;;5111590;27;19922;-66
2022/09/15 06:23:31;;;;;;;;;;;12.40;99.90;;;;;;5111981;27;20185;-66
2022/09/15 06:26:02;;;;;;;;;;;12.40;99.90;;;;;;5110301;27;19968;-66
2022/09/15 06:28:28;;;;;;;;;;;12.50;99.90;;;;;;5107621;27;19923;-66
2022/09/15 06:30:53;;;;;;;;;;;12.60;99.90;;;;;;5110144;27;20365;-66
2022/09/15 06:33:19;;;;;;;;;;;12.60;99.90;;;;;;5107309;27;20142;-66
2022/09/15 06:35:44;;;;;;;;;;;12.70;99.90;;;;;;5112801;27;19917;-65
2022/09/15 06:38:10;;;;;;;;;;;12.80;99.90;;;;;;5111495;27;20078;-66
2022/09/15 06:40:36;;;;;;;;;;;12.80;99.90;;;;;;5114074;27;20429;-66
2022/09/15 06:43:01;;;;;;;;;;;12.90;99.90;;;;;;4761186;27;10000048;-66
2022/09/15 06:45:28;;;;;;;;;;;13.00;99.90;;;;;;5111386;28;19950;-66
2022/09/15 06:47:53;;;;;;;;;;;13.10;99.90;;;;;;5117412;28;19981;-66
2022/09/15 06:50:19;;;;;;;;;;;13.10;99.90;;;;;;5114400;28;20010;-66
2022/09/15 06:52:44;;;;;;;;;;;13.30;99.90;;;;;;5107359;28;20390;-67
2022/09/15 06:55:10;;;;;;;;;;;13.30;99.90;;;;;;5100836;28;19915;-66
2022/09/15 06:57:35;;;;;;;;;;;13.40;99.90;;;;;;5121541;27;19921;-66
2022/09/15 07:00:01;;;;;;;;;;;13.50;99.90;;;;;;5115405;28;19915;-66
2022/09/15 07:02:27;;;;;;;;;;;13.50;99.90;;;;;;5112034;28;19916;-66
2022/09/15 07:04:52;;;;;;;;;;;13.60;99.90;;;;;;5112341;28;20014;-66
2022/09/15 07:07:18;;;;;;;;;;;13.60;99.90;;;;;;5114918;28;20336;-66
2022/09/15 07:09:43;;;;;;;;;;;13.70;99.90;;;;;;5112768;28;20011;-66
2022/09/15 07:12:09;;;;;;;;;;;13.80;99.90;;;;;;5118622;28;19916;-66
2022/09/15 07:14:34;;;;;;;;;;;13.90;99.90;;;;;;5117665;27;20040;-66
2022/09/15 07:17:00;;;;;;;;;;;13.90;99.90;;;;;;5111460;28;20366;-66
2022/09/15 07:19:26;;;;;;;;;;;14.00;99.90;;;;;;5102007;28;19961;-66
2022/09/15 07:21:51;;;;;;;;;;;14.10;99.90;;;;;;5101204;28;19970;-66
2022/09/15 07:24:17;;;;;;;;;;;14.30;99.90;;;;;;5101942;28;19995;-66
2022/09/15 07:26:42;;;;;;;;;;;14.30;99.90;;;;;;5104028;28;19927;-66
2022/09/15 07:29:08;;;;;;;;;;;14.40;99.90;;;;;;5105490;28;19919;-66
2022/09/15 07:31:35;;;;;;;;;;;14.50;99.90;;;;;;5114489;27;19969;-66
2022/09/15 07:34:01;;;;;;;;;;;14.60;99.90;;;;;;5106553;28;19968;-66
2022/09/15 07:36:27;;;;;;;;;;;14.70;99.90;;;;;;5103629;28;19919;-66
2022/09/15 07:38:53;;;;;;;;;;;14.80;99.90;;;;;;5117937;28;20384;-66
2022/09/15 07:41:22;;;;;;;;;;;14.90;99.90;;;;;;5108016;28;19919;-66
2022/09/15 07:43:49;;;;;;;;;;;15.00;99.90;;;;;;5102597;28;19915;-66
2022/09/15 07:46:15;;;;;;;;;;;15.00;99.90;;;;;;5105353;27;20038;-66
2022/09/15 07:48:44;;;;;;;;;;;15.00;99.90;;;;;;5125622;27;20391;-66
2022/09/15 07:51:10;;;;;;;;;;;15.00;99.90;;;;;;5124524;27;19950;-66
2022/09/15 07:53:35;;;;;;;;;;;15.10;99.90;;;;;;5112342;27;20003;-66
2022/09/15 07:56:01;;;;;;;;;;;15.20;99.90;;;;;;5103604;27;19941;-66
2022/09/15 07:58:26;;;;;;;;;;;15.40;99.90;;;;;;5106767;27;19915;-66
2022/09/15 08:00:52;;;;;;;;;;;15.60;99.90;;;;;;5102665;27;20468;-66
2022/09/15 08:03:17;;;;;;;;;;;15.80;99.90;;;;;;5101099;27;20379;-66
2022/09/15 08:05:43;;;;;;;;;;;15.90;99.90;;;;;;5103198;27;19958;-66
2022/09/15 08:08:08;;;;;;;;;;;16.10;99.90;;;;;;5103077;27;19927;-66
2022/09/15 08:10:36;;;;;;;;;;;16.10;99.90;;;;;;5108106;27;19916;-66
2022/09/15 08:13:02;;;;;;;;;;;16.10;99.90;;;;;;5102884;27;19915;-66
2022/09/15 08:15:27;;;;;;;;;;;16.00;99.90;;;;;;5110126;27;19942;-66
2022/09/15 08:17:53;;;;;;;;;;;16.00;99.90;;;;;;5117967;27;19926;-66
2022/09/15 08:20:19;;;;;;;;;;;16.10;99.90;;;;;;5114763;27;19916;-66
2022/09/15 08:22:45;;;;;;;;;;;16.40;99.90;;;;;;5118286;27;19915;-66
2022/09/15 08:25:11;;;;;;;;;;;16.70;99.90;;;;;;5117703;27;20427;-66
2022/09/15 08:27:37;;;;;;;;;;;17.00;99.90;;;;;;5112062;27;19976;-65
2022/09/15 08:30:04;;;;;;;;;;;17.40;99.90;;;;;;5119141;27;19919;-66
2022/09/15 08:32:29;;;;;;;;;;;17.90;99.90;;;;;;5116661;27;20185;-66
2022/09/15 08:34:55;;;;;;;;;;;18.90;99.90;;;;;;5113525;27;20332;-66
2022/09/15 08:37:21;;;;;;;;;;;19.50;99.90;;;;;;5111675;27;19919;-67
2022/09/15 08:39:46;;;;;;;;;;;20.90;99.90;;;;;;5090387;27;19919;-67
2022/09/15 08:42:16;;;;;;;;;;;21.20;99.90;;;;;;5112665;27;19979;-67
2022/09/15 08:44:41;;;;;;;;;;;21.70;99.90;;;;;;5109954;27;19923;-66
2022/09/15 08:47:15;;;;;;;;;;;22.40;99.90;;;;;;5107289;27;19923;-66
2022/09/15 08:49:53;;;;;;;;;;;23.30;99.90;;;;;;5122354;27;19915;-67
2022/09/15 08:52:27;;;;;;;;;;;24.20;99.90;;;;;;5119876;27;19915;-67
2022/09/15 08:54:55;;;;;;;;;;;23.20;99.90;;;;;;5123665;27;19919;-67
2022/09/15 08:57:22;;;;;;;;;;;22.50;99.90;;;;;;5142834;27;19915;-66
2022/09/15 08:59:48;;;;;;;;;;;21.70;99.90;;;;;;5121074;27;19922;-67
2022/09/15 09:02:20;;;;;;;;;;;21.30;99.90;;;;;;5118496;27;19916;-66
2022/09/15 09:04:52;;;;;;;;;;;20.80;99.90;;;;;;5121358;27;20763;-67
2022/09/15 09:07:23;;;;;;;;;;;20.40;99.90;;;;;;5122007;27;20167;-67
2022/09/15 09:09:58;;;;;;;;;;;19.80;99.90;;;;;;4755589;27;10000043;-67
2022/09/15 09:12:31;;;;;;;;;;;19.50;99.90;;;;;;5119159;27;19937;-66
2022/09/15 09:14:56;;;;;;;;;;;19.10;99.90;;;;;;5105494;27;19923;-67
2022/09/15 09:17:41;;;;;;;;;;;18.80;99.90;;;;;;5121137;27;19916;-67
2022/09/15 09:20:06;;;;;;;;;;;18.40;99.90;;;;;;5115160;27;20025;-66
2022/09/15 09:22:33;;;;;;;;;;;18.30;99.90;;;;;;5117358;27;20002;-67
2022/09/15 09:25:00;;;;;;;;;;;18.10;99.90;;;;;;5117576;27;19950;-67
2022/09/15 09:27:27;;;;;;;;;;;17.90;99.90;;;;;;5102864;27;19924;-67
2022/09/15 09:29:58;;;;;;;;;;;17.80;99.90;;;;;;5129593;27;19911;-67
2022/09/15 09:32:24;;;;;;;;;;;17.80;99.90;;;;;;5143294;27;20048;-67
2022/09/15 09:34:57;;;;;;;;;;;17.80;99.90;;;;;;5118720;27;19911;-67
2022/09/15 09:37:23;;;;;;;;;;;17.70;99.90;;;;;;5120374;27;19926;-67
2022/09/15 09:39:49;;;;;;;;;;;17.70;99.90;;;;;;5111794;27;19915;-67
2022/09/15 09:42:15;;;;;;;;;;;17.70;99.90;;;;;;5120297;27;19923;-67
2022/09/15 09:44:41;;;;;;;;;;;17.70;99.90;;;;;;5121638;27;19922;-66
2022/09/15 09:47:06;;;;;;;;;;;17.60;99.90;;;;;;5119743;27;19927;-67
2022/09/15 09:49:33;;;;;;;;;;;17.50;99.90;;;;;;5120427;27;19988;-66
2022/09/15 09:52:01;;;;;;;;;;;17.50;99.90;;;;;;5121443;27;19916;-66
2022/09/15 09:54:28;;;;;;;;;;;17.40;99.90;;;;;;5114460;27;19919;-67
2022/09/15 09:56:54;;;;;;;;;;;17.50;99.90;;;;;;5106103;27;19915;-66
2022/09/15 09:59:39;;;;;;;;;;;17.50;99.90;;;;;;5111840;27;19916;-66
2022/09/15 10:02:05;;;;;;;;;;;17.50;99.90;;;;;;5112763;27;19919;-66
2022/09/15 10:04:30;;;;;;;;;;;17.50;99.90;;;;;;5121659;27;19915;-66
2022/09/15 10:06:56;;;;;;;;;;;17.70;99.90;;;;;;5117752;27;19930;-66
2022/09/15 10:09:21;;;;;;;;;;;17.80;99.90;;;;;;5117095;27;19919;-66
2022/09/15 10:11:52;;;;;;;;;;;18.00;99.90;;;;;;5118811;27;19926;-66
2022/09/15 10:14:24;;;;;;;;;;;18.10;99.90;;;;;;5118329;27;19947;-66
2022/09/15 10:16:56;;;;;;;;;;;18.20;99.90;;;;;;5108812;27;19941;-67
2022/09/15 10:19:22;;;;;;;;;;;18.40;99.90;;;;;;5108390;27;19945;-67
2022/09/15 10:21:47;;;;;;;;;;;18.50;99.90;;;;;;5117159;27;19919;-67
2022/09/15 10:24:31;;;;;;;;;;;18.50;99.90;;;;;;5114080;27;19919;-66
2022/09/15 10:27:26;;;;;;;;;;;18.40;99.90;;;;;;5103391;27;19924;-68
2022/09/15 10:29:53;;;;;;;;;;;18.50;99.90;;;;;;5084956;27;21342;-68
2022/09/15 10:32:19;;;;;;;;;;;18.50;99.90;;;;;;5117610;27;19919;-67
2022/09/15 10:34:47;;;;;;;;;;;18.50;99.90;;;;;;5120549;27;19962;-67
2022/09/15 10:37:19;;;;;;;;;;;18.50;99.90;;;;;;5119156;27;19926;-67
2022/09/15 10:39:51;;;;;;;;;;;18.40;99.90;;;;;;5114108;27;19919;-67
2022/09/15 10:42:27;;;;;;;;;;;18.40;99.90;;;;;;5117249;28;20035;-67
2022/09/15 10:45:00;;;;;;;;;;;18.40;99.90;;;;;;5120835;28;19922;-67
2022/09/15 10:47:25;;;;;;;;;;;18.50;99.90;;;;;;5119811;28;19930;-67
2022/09/15 10:49:57;;;;;;;;;;;18.50;99.90;;;;;;5113348;28;19919;-67
2022/09/15 10:52:48;;;;;;;;;;;18.60;99.90;;;;;;5114342;28;20403;-67
2022/09/15 10:55:33;;;;;;;;;;;18.60;99.90;;;;;;5075934;28;20684;-68
2022/09/15 10:57:58;;;;;;;;;;;18.80;99.90;;;;;;5096937;28;19922;-67
2022/09/15 11:00:25;;;;;;;;;;;19.00;99.90;;;;;;5117699;28;19911;-67
2022/09/15 11:03:09;;;;;;;;;;;19.20;99.90;;;;;;5119725;28;19927;-67
2022/09/15 11:05:38;;;;;;;;;;;19.40;99.90;;;;;;5119293;28;19938;-67
2022/09/15 11:08:07;;;;;;;;;;;19.50;99.90;;;;;;5118180;28;20613;-67
2022/09/15 11:10:47;;;;;;;;;;;19.60;99.90;;;;;;5120770;27;19944;-67
2022/09/15 11:13:15;;;;;;;;;;;19.70;99.90;;;;;;5112160;28;19916;-68
2022/09/15 11:15:41;;;;;;;;;;;19.80;99.90;;;;;;5113553;27;20460;-67
2022/09/15 11:18:09;;;;;;;;;;;19.90;99.90;;;;;;5116634;28;19911;-67
2022/09/15 11:20:38;;;;;;;;;;;20.00;99.90;;;;;;5110159;27;19915;-67
2022/09/15 11:23:10;;;;;;;;;;;20.10;99.90;;;;;;5107473;27;21710;-67
2022/09/15 11:25:39;;;;;;;;;;;20.30;99.90;;;;;;5108587;27;19915;-67
2022/09/15 11:28:16;;;;;;;;;;;20.70;99.90;;;;;;5107936;27;20395;-67
2022/09/15 11:31:04;;;;;;;;;;;21.00;99.90;;;;;;5112526;27;19919;-67
2022/09/15 11:33:31;;;;;;;;;;;20.90;99.90;;;;;;5123649;27;20284;-67
2022/09/15 11:35:57;;;;;;;;;;;21.10;99.90;;;;;;5124752;27;19954;-67
2022/09/15 11:38:41;;;;;;;;;;;21.20;99.90;;;;;;5122561;27;19951;-67
2022/09/15 11:41:22;;;;;;;;;;;21.50;99.90;;;;;;5123751;27;19915;-66
2022/09/15 11:43:54;;;;;;;;;;;21.50;99.90;;;;;;5102713;27;19916;-67
2022/09/15 11:46:24;;;;;;;;;;;21.60;99.90;;;;;;5106653;27;20258;-67
2022/09/15 11:48:57;;;;;;;;;;;22.10;99.90;;;;;;5105131;27;20605;-67
2022/09/15 11:51:24;;;;;;;;;;;22.40;99.90;;;;;;5106667;27;19916;-68
2022/09/15 11:53:57;;;;;;;;;;;22.50;99.90;;;;;;5096320;27;19918;-68
2022/09/15 11:56:41;;;;;;;;;;;22.50;99.90;;;;;;5110628;27;19940;-68
2022/09/15 11:59:13;;;;;;;;;;;22.60;99.90;;;;;;5106911;27;19920;-67
2022/09/15 12:01:42;;;;;;;;;;;23.00;99.90;;;;;;5109182;27;19915;-68
2022/09/15 12:04:11;;;;;;;;;;;23.60;99.90;;;;;;5102727;27;19915;-67
2022/09/15 12:06:39;;;;;;;;;;;24.10;99.90;;;;;;5098881;27;19962;-67
2022/09/15 12:09:06;;;;;;;;;;;24.70;99.90;;;;;;5099316;27;19937;-68
2022/09/15 12:11:35;;;;;;;;;;;24.80;99.90;;;;;;5101170;27;20023;-68
2022/09/15 12:14:02;;;;;;;;;;;24.80;98.60;;;;;;5105039;27;20064;-68
2022/09/15 12:16:28;;;;;;;;;;;24.20;97.60;;;;;;5107445;27;20022;-68
2022/09/15 12:18:56;;;;;;;;;;;23.90;99.00;;;;;;5100913;27;19915;-66
2022/09/15 12:21:27;;;;;;;;;;;23.20;99.90;;;;;;5093740;27;19931;-67
2022/09/15 12:23:55;;;;;;;;;;;22.70;99.90;;;;;;5087388;27;19978;-66
2022/09/15 12:26:22;;;;;;;;;;;22.30;99.90;;;;;;5097626;27;19919;-67
2022/09/15 12:28:50;;;;;;;;;;;22.10;99.90;;;;;;5100512;27;20054;-66
2022/09/15 12:31:36;;;;;;;;;;;21.60;99.90;;;;;;5099782;27;19922;-67
2022/09/15 12:34:21;;;;;;;;;;;21.30;99.90;;;;;;5103345;27;19926;-67
2022/09/15 12:36:47;;;;;;;;;;;20.80;99.90;;;;;;5109866;27;20002;-67
2022/09/15 12:39:16;;;;;;;;;;;20.60;99.90;;;;;;5111309;27;19915;-67
2022/09/15 12:42:00;;;;;;;;;;;20.50;99.90;;;;;;5109919;27;19920;-67
2022/09/15 12:44:32;;;;;;;;;;;20.60;99.90;;;;;;5105855;27;20678;-67
2022/09/15 12:46:59;;;;;;;;;;;20.50;99.90;;;;;;5098365;27;19923;-67
2022/09/15 12:49:31;;;;;;;;;;;20.70;99.90;;;;;;5099531;27;19919;-67
2022/09/15 12:51:57;;;;;;;;;;;20.80;99.90;;;;;;5109989;27;19924;-67
2022/09/15 12:54:27;;;;;;;;;;;21.00;99.90;;;;;;5106850;27;20390;-67
2022/09/15 12:56:53;;;;;;;;;;;21.20;99.90;;;;;;5108507;27;19915;-66
2022/09/15 12:59:21;;;;;;;;;;;21.30;99.90;;;;;;5108071;27;19972;-66
2022/09/15 13:01:47;;;;;;;;;;;21.50;99.90;;;;;;5117357;27;19912;-66
2022/09/15 13:04:42;;;;;;;;;;;21.50;99.90;;;;;;5113638;27;20379;-66
2022/09/15 13:07:14;;;;;;;;;;;21.70;99.90;;;;;;5112340;27;20373;-66
2022/09/15 13:09:51;;;;;;;;;;;21.70;99.90;;;;;;5117180;27;19969;-66
2022/09/15 13:12:18;;;;;;;;;;;21.70;99.90;;;;;;5115175;27;19948;-66
2022/09/15 13:14:47;;;;;;;;;;;21.70;99.90;;;;;;5111471;27;20477;-66
2022/09/15 13:17:21;;;;;;;;;;;21.70;99.90;;;;;;5116547;27;19916;-66
2022/09/15 13:19:49;;;;;;;;;;;21.40;99.90;;;;;;5109774;27;19915;-67
2022/09/15 13:22:35;;;;;;;;;;;21.20;99.90;;;;;;5112359;27;20396;-66
2022/09/15 13:25:12;;;;;;;;;;;21.00;99.90;;;;;;5105969;27;19915;-66
2022/09/15 13:27:42;;;;;;;;;;;21.30;99.90;;;;;;5108469;27;19930;-66
2022/09/15 13:30:08;;;;;;;;;;;21.40;99.90;;;;;;5108922;27;19915;-66
2022/09/15 13:32:38;;;;;;;;;;;21.50;99.90;;;;;;5109378;27;19969;-67
2022/09/15 13:35:07;;;;;;;;;;;21.80;99.90;;;;;;5105025;27;19915;-67
2022/09/15 13:37:39;;;;;;;;;;;22.00;99.90;;;;;;5105124;27;20005;-67
2022/09/15 13:40:33;;;;;;;;;;;21.90;99.90;;;;;;5108971;27;20037;-67
2022/09/15 13:43:21;;;;;;;;;;;21.50;99.90;;;;;;5104970;27;19926;-66
2022/09/15 13:45:55;;;;;;;;;;;21.20;99.90;;;;;;5106383;27;20350;-67
2022/09/15 13:48:25;;;;;;;;;;;20.80;99.90;;;;;;5106210;27;20004;-67
2022/09/15 13:50:55;;;;;;;;;;;20.80;99.90;;;;;;5108258;27;19916;-67
2022/09/15 13:53:28;;;;;;;;;;;20.70;99.90;;;;;;5100387;27;21291;-67
2022/09/15 13:55:54;;;;;;;;;;;20.50;99.90;;;;;;5104426;27;19982;-66
2022/09/15 13:58:21;;;;;;;;;;;20.40;99.90;;;;;;5093745;28;20190;-66
2022/09/15 14:00:47;;;;;;;;;;;20.50;99.90;;;;;;5109953;27;19922;-67
2022/09/15 14:03:19;;;;;;;;;;;20.30;99.90;;;;;;5121141;27;19999;-66
2022/09/15 14:05:44;;;;;;;;;;;20.20;99.90;;;;;;5119822;27;20049;-66
2022/09/15 14:08:15;;;;;;;;;;;20.10;99.90;;;;;;5113832;27;20349;-67
2022/09/15 14:10:47;;;;;;;;;;;20.00;99.90;;;;;;5117992;27;19915;-67
2022/09/15 14:13:16;;;;;;;;;;;19.90;99.90;;;;;;5116392;27;20390;-67
2022/09/15 14:15:54;;;;;;;;;;;19.90;99.90;;;;;;5114702;27;20021;-66
2022/09/15 14:18:20;;;;;;;;;;;19.80;99.90;;;;;;5118439;27;19966;-66
2022/09/15 14:20:55;;;;;;;;;;;19.70;99.90;;;;;;5111166;27;19958;-66
2022/09/15 14:23:21;;;;;;;;;;;20.00;99.90;;;;;;5114393;27;19920;-66
2022/09/15 14:25:47;;;;;;;;;;;20.20;99.90;;;;;;5116399;27;19915;-66
2022/09/15 14:28:16;;;;;;;;;;;20.40;99.90;;;;;;5108574;27;20018;-66